Time;durP1;ratioP1;P1;durP2;ratioP2;P2;SDS_P1;SDS_P2;PMS_P1;PMS_P2;Temp;Humidity;BMP_temperature;BMP_pressure;BME280_temperature;BME280_humidity;BME280_pressure;Samples;Min_cycle;Max_cycle;Signal;HPM_P1;HPM_P2
2022/08/27 00:01:28;;;;;;;14.10;6.75;;;;;;;24.77;61.40;100241.98;5148410;57;1141044;-73
2022/08/27 00:06:34;;;;;;;13.15;6.37;;;;;;;24.76;61.13;100232.20;5148288;57;1141321;-73
2022/08/27 00:11:40;;;;;;;14.78;6.50;;;;;;;24.71;61.06;100234.23;5148384;57;1141121;-73
2022/08/27 00:16:46;;;;;;;13.22;6.67;;;;;;;24.66;60.92;100234.05;5186779;56;1141037;-73
2022/08/27 00:21:54;;;;;;;18.37;6.90;;;;;;;24.56;60.79;100231.53;5174048;56;1141059;-73
2022/08/27 00:27:00;;;;;;;16.00;7.05;;;;;;;24.50;60.87;100230.51;5148374;57;1141088;-74
2022/08/27 00:32:07;;;;;;;15.38;6.95;;;;;;;24.46;60.99;100230.63;5148657;56;1141281;-74
2022/08/27 00:37:14;;;;;;;17.55;7.03;;;;;;;24.42;61.13;100239.72;5210325;56;1141031;-73
2022/08/27 00:42:20;;;;;;;20.62;7.58;;;;;;;24.38;61.17;100235.78;5234667;56;1141083;-74
2022/08/27 00:47:29;;;;;;;16.82;7.33;;;;;;;24.28;61.28;100234.59;5234585;56;1141065;-73
2022/08/27 00:52:45;;;;;;;19.12;7.95;;;;;;;24.21;61.54;100239.98;5234392;56;1141063;-74
2022/08/27 00:58:05;;;;;;;14.60;7.65;;;;;;;24.11;61.68;100240.45;5234648;56;1141056;-73
2022/08/27 01:03:11;;;;;;;18.42;7.62;;;;;;;24.06;61.94;100232.14;5169442;56;1141086;-74
2022/08/27 01:08:24;;;;;;;18.70;7.30;;;;;;;24.01;62.12;100239.22;5147795;57;1141255;-74
2022/08/27 01:13:33;;;;;;;18.37;7.20;;;;;;;23.99;62.14;100248.05;5148746;57;1141284;-74
2022/08/27 01:18:40;;;;;;;25.08;7.97;;;;;;;23.93;62.37;100240.30;5211866;56;1141043;-74
2022/08/27 01:23:58;;;;;;;14.73;7.67;;;;;;;23.88;62.72;100238.74;5148716;56;1141114;-72
2022/08/27 01:29:04;;;;;;;14.18;7.00;;;;;;;23.84;62.91;100237.50;5150800;56;1139057;-73
2022/08/27 01:34:10;;;;;;;15.58;7.25;;;;;;;23.82;63.09;100236.39;5226347;56;1139296;-74
2022/08/27 01:39:16;;;;;;;13.38;7.22;;;;;;;23.78;63.23;100227.56;5235414;56;1138995;-73
2022/08/27 01:44:21;;;;;;;15.50;7.25;;;;;;;23.73;63.39;100236.81;5179195;56;1139057;-73
2022/08/27 01:49:27;;;;;;;12.45;7.42;;;;;;;23.69;63.63;100247.72;5149023;56;1138911;-73
2022/08/27 01:54:34;;;;;;;15.05;7.25;;;;;;;23.44;64.09;100245.66;5148957;56;1138988;-72
2022/08/27 01:59:41;;;;;;;10.75;6.90;;;;;;;23.24;64.78;100235.39;5148936;56;1139123;-74
2022/08/27 02:04:47;;;;;;;19.94;7.90;;;;;;;23.04;65.13;100235.92;5106200;57;1139179;-74
2022/08/27 02:09:53;;;;;;;15.25;7.95;;;;;;;22.87;65.86;100231.96;5148972;57;1139024;-74
2022/08/27 02:14:59;;;;;;;13.08;7.37;;;;;;;22.85;66.72;100228.64;5156322;56;1139296;-72
2022/08/27 02:20:09;;;;;;;17.50;7.87;;;;;;;22.87;67.41;100228.75;5205526;56;1139041;-73
2022/08/27 02:25:18;;;;;;;18.37;7.55;;;;;;;22.85;67.44;100227.29;5161111;57;1139137;-72
2022/08/27 02:30:25;;;;;;;10.93;7.28;;;;;;;22.71;67.37;100233.98;5225999;56;1139000;-74
2022/08/27 02:35:37;;;;;;;15.63;7.58;;;;;;;22.62;68.13;100231.14;5235104;56;1139017;-74
2022/08/27 02:40:42;;;;;;;16.77;8.27;;;;;;;22.66;68.36;100231.06;5190900;56;1136880;-71
2022/08/27 02:45:49;;;;;;;19.10;9.25;;;;;;;22.73;68.43;100229.22;5154404;56;1136911;-74
2022/08/27 02:50:55;;;;;;;22.17;8.80;;;;;;;22.74;68.45;100230.05;5149060;56;1141138;-74
2022/08/27 02:56:01;;;;;;;23.10;8.27;;;;;;;22.70;68.43;100222.88;5161683;56;1141017;-72
2022/08/27 03:01:08;;;;;;;19.13;8.87;;;;;;;22.65;68.57;100225.87;5127599;57;1141064;-72
2022/08/27 03:06:14;;;;;;;16.13;8.20;;;;;;;22.51;68.60;100225.53;5074575;57;1141398;-72
2022/08/27 03:11:22;;;;;;;12.07;8.08;;;;;;;22.43;68.84;100226.05;5148843;57;1141303;-74
2022/08/27 03:16:28;;;;;;;25.57;8.30;;;;;;;22.43;69.38;100212.57;5183339;56;1141435;-73
2022/08/27 03:21:35;;;;;;;30.90;8.88;;;;;;;22.35;69.18;100213.25;5187655;56;1141500;-74
2022/08/27 03:26:41;;;;;;;15.45;8.08;;;;;;;22.22;69.67;100211.87;5185506;56;1140999;-72
2022/08/27 03:31:48;;;;;;;22.77;9.03;;;;;;;22.14;69.78;100212.06;5193359;56;1141179;-74
2022/08/27 03:36:54;;;;;;;14.25;8.55;;;;;;;22.04;70.35;100210.55;5226469;56;1141045;-74
2022/08/27 03:42:00;;;;;;;16.02;8.20;;;;;;;21.98;70.54;100209.16;5213298;56;1141042;-73
2022/08/27 03:47:06;;;;;;;17.92;9.38;;;;;;;22.04;70.71;100207.86;5157784;56;1141057;-73
2022/08/27 03:52:13;;;;;;;16.02;8.62;;;;;;;22.18;70.76;100213.30;5157683;57;1141145;-73
2022/08/27 03:57:19;;;;;;;15.58;9.03;;;;;;;22.22;70.60;100216.73;5162049;57;1141079;-73
2022/08/27 04:02:25;;;;;;;13.10;8.05;;;;;;;22.12;70.58;100214.95;5161973;57;1141067;-73
2022/08/27 04:07:31;;;;;;;21.02;8.88;;;;;;;;;;5161963;57;1140357;-74
2022/08/27 04:12:38;;;;;;;16.50;9.25;;;;;;;21.88;71.09;100217.59;5127745;57;820377;-73
2022/08/27 04:17:44;;;;;;;13.25;8.63;;;;;;;21.87;71.34;100224.52;5161927;57;1139083;-74
2022/08/27 04:22:49;;;;;;;18.47;8.80;;;;;;;21.81;71.42;100223.48;5161765;57;1141084;-75
2022/08/27 04:27:55;;;;;;;18.15;10.00;;;;;;;21.76;71.65;100224.58;5161851;57;1141353;-73
2022/08/27 04:33:01;;;;;;;17.07;8.38;;;;;;;21.76;72.15;100228.10;5139277;57;1143281;-73
2022/08/27 04:38:07;;;;;;;21.42;8.46;;;;;;;21.73;72.29;100236.56;5162156;57;1141344;-73
2022/08/27 04:43:15;;;;;;;20.40;8.85;;;;;;;21.75;72.44;100233.16;5161375;57;1141072;-73
2022/08/27 04:48:21;;;;;;;22.25;8.90;;;;;;;21.76;72.71;100233.48;5162489;57;1141050;-73
2022/08/27 04:53:27;;;;;;;16.25;8.75;;;;;;;21.79;72.62;100233.61;5162734;56;1141095;-73
2022/08/27 04:58:33;;;;;;;18.05;9.10;;;;;;;21.88;73.02;100234.27;5162370;57;1141081;-74
2022/08/27 05:03:39;;;;;;;13.05;8.25;;;;;;;21.91;72.92;100236.05;5147142;56;1141416;-74
2022/08/27 05:08:45;;;;;;;18.65;8.63;;;;;;;21.98;72.81;100237.44;5162379;56;1141118;-73
2022/08/27 05:13:50;;;;;;;26.68;10.50;;;;;;;;;;5162333;57;1141175;-73
2022/08/27 05:18:58;;;;;;;11.97;9.38;;;;;;;22.08;72.76;100235.23;5103114;57;822160;-73
2022/08/27 05:24:07;;;;;;;14.90;9.38;;;;;;;22.14;72.73;100230.40;5162352;56;1139181;-73
2022/08/27 05:29:13;;;;;;;16.45;9.90;;;;;;;22.16;72.40;100235.56;5162273;57;1141242;-73
2022/08/27 05:34:20;;;;;;;20.10;9.80;;;;;;;22.11;73.20;100233.49;5162165;57;1141091;-73
2022/08/27 05:39:28;;;;;;;17.62;9.05;;;;;;;22.14;73.06;100230.91;5161218;56;1141164;-74
2022/08/27 05:44:33;;;;;;;20.72;9.38;;;;;;;22.29;73.42;100228.91;5098557;57;1141048;-73
2022/08/27 05:49:39;;;;;;;15.08;9.08;;;;;;;22.46;72.94;100239.60;5162114;57;1141070;-73
2022/08/27 05:54:45;;;;;;;19.07;9.28;;;;;;;22.60;73.03;100229.72;5223456;56;1141581;-73
2022/08/27 06:05:17;;;;;;;17.55;8.83;;;;;;;22.85;71.58;100225.42;5170214;56;1140994;-74
2022/08/27 06:10:23;;;;;;;13.93;8.70;;;;;;;23.07;72.23;100224.17;5185155;56;1139185;-73
2022/08/27 06:15:30;;;;;;;19.77;9.65;;;;;;;23.40;72.50;100223.33;5181644;56;1138973;-74
2022/08/27 06:20:36;;;;;;;12.73;7.97;;;;;;;23.71;70.50;100230.27;5172789;56;1139054;-72
2022/08/27 06:25:42;;;;;;;20.08;8.43;;;;;;;23.89;69.71;100239.58;5107612;57;1139230;-73
2022/08/27 06:30:48;;;;;;;12.40;8.98;;;;;;;24.00;69.13;100238.91;5110436;57;1139262;-73
2022/08/27 06:35:54;;;;;;;17.62;8.90;;;;;;;24.11;69.04;100232.86;5183076;56;1138978;-73
2022/08/27 06:41:02;;;;;;;23.10;9.40;;;;;;;24.22;68.89;100236.23;5194439;56;1138953;-73
2022/08/27 06:46:13;;;;;;;18.75;8.23;;;;;;;24.37;67.98;100238.17;5190391;56;1139226;-73
2022/08/27 06:51:28;;;;;;;11.55;8.10;;;;;;;24.59;66.35;100240.05;5190630;56;1139023;-73
2022/08/27 06:56:30;;;;;;;12.40;7.60;;;;;;;24.79;66.49;100235.31;5192459;56;1138941;-73
2022/08/27 07:01:41;;;;;;;14.30;8.25;;;;;;;25.00;66.49;100230.11;5138944;56;1137317;-74
2022/08/27 07:06:47;;;;;;;21.77;8.98;;;;;;;25.17;65.45;100231.22;5198221;56;1141061;-73
2022/08/27 07:11:53;;;;;;;18.10;7.73;;;;;;;25.30;63.86;100228.92;5209932;56;1141013;-73
2022/08/27 07:17:00;;;;;;;23.40;8.87;;;;;;;25.21;62.53;100231.06;5185799;56;1141012;-73
2022/08/27 07:22:06;;;;;;;10.83;7.53;;;;;;;25.16;63.00;100241.74;5195135;56;1141031;-73
2022/08/27 07:27:12;;;;;;;14.40;7.20;;;;;;;25.32;61.94;100247.13;5191695;56;1141064;-74
2022/08/27 07:32:18;;;;;;;11.05;7.40;;;;;;;25.42;61.98;100247.97;5188984;56;1141226;-74
2022/08/27 07:37:24;;;;;;;19.23;8.08;;;;;;;25.53;62.11;100252.64;5208575;56;1141280;-74
2022/08/27 07:47:55;;;;;;;14.75;7.70;;;;;;;25.81;63.46;100256.27;5196388;56;1141314;-75
2022/08/27 07:53:00;;;;;;;13.95;9.43;;;;;;;26.00;61.95;100247.07;5199536;56;1141051;-73
2022/08/27 07:58:06;;;;;;;22.20;13.13;;;;;;;26.28;61.93;100237.88;5210284;56;1141060;-75
2022/08/27 08:03:13;;;;;;;28.12;9.58;;;;;;;26.55;60.89;100196.34;5199645;56;1143121;-74
2022/08/27 08:08:20;;;;;;;18.67;6.72;;;;;;;26.84;58.72;100242.66;5207141;56;1141339;-76
2022/08/27 08:13:26;;;;;;;14.83;7.45;;;;;;;27.16;58.21;100259.52;5182368;56;1141053;-72
2022/08/27 08:18:32;;;;;;;11.45;6.22;;;;;;;27.46;57.22;100253.47;5197781;56;1141084;-73
2022/08/27 08:23:39;;;;;;;13.83;6.20;;;;;;;27.68;55.75;100259.67;5235630;56;1141033;-74
2022/08/27 08:28:45;;;;;;;7.20;5.70;;;;;;;27.68;54.85;100256.95;5217999;56;1141058;-74
2022/08/27 08:33:51;;;;;;;10.60;5.72;;;;;;;27.83;52.77;100260.02;5178693;56;1138976;-72
2022/08/27 08:38:57;;;;;;;17.32;5.95;;;;;;;27.94;51.08;100263.28;5221619;56;1141347;-74
2022/08/27 08:44:24;;;;;;;10.88;5.65;;;;;;;28.08;52.30;100263.31;5213281;56;1141068;-73
2022/08/27 08:50:04;;;;;;;8.50;5.70;;;;;;;28.38;51.31;100258.23;5110746;57;1141107;-74
2022/08/27 08:55:14;;;;;;;9.08;5.60;;;;;;;28.59;50.07;100262.44;5098563;57;1138983;-72
2022/08/27 09:00:20;;;;;;;7.67;5.67;;;;;;;28.82;49.49;100264.81;5055695;57;1139112;-74
2022/08/27 09:05:26;;;;;;;12.65;5.58;;;;;;;28.94;49.20;100262.84;5124275;57;1139056;-72
2022/08/27 09:11:04;;;;;;;11.57;6.10;;;;;;;29.15;48.16;100255.85;5124396;57;1139013;-73
2022/08/27 09:16:10;;;;;;;17.42;11.85;;;;;;;29.29;48.53;100258.00;5124280;57;1139522;-72
2022/08/27 09:21:43;;;;;;;12.43;8.45;;;;;;;29.44;48.13;100259.34;5097183;57;1141537;-74
2022/08/27 09:26:49;;;;;;;13.13;6.60;;;;;;;29.57;46.17;100258.45;5081005;56;1139173;-73
2022/08/27 09:32:06;;;;;;;14.07;5.12;;;;;;;29.55;41.82;100259.78;5188802;56;1139147;-72
2022/08/27 09:37:24;;;;;;;13.18;5.75;;;;;;;29.54;42.88;100259.48;5197941;56;1136937;-73
2022/08/27 09:42:39;;;;;;;9.87;5.20;;;;;;;29.66;43.25;100258.30;5189861;56;1141010;-74
2022/08/27 09:47:54;;;;;;;18.07;7.03;;;;;;;29.79;45.14;100261.20;5179364;56;1138911;-73
2022/08/27 09:53:00;;;;;;;30.68;18.70;;;;;;;29.96;43.75;100243.44;5157698;56;1141321;-73
2022/08/27 09:58:11;;;;;;;20.35;6.22;;;;;;;30.19;43.81;100250.59;5160200;57;1143225;-72
2022/08/27 10:03:21;;;;;;;8.47;5.27;;;;;;;30.36;42.91;100242.62;5100102;57;1141264;-74
2022/08/27 10:08:40;;;;;;;14.47;6.28;;;;;;;30.44;41.16;100246.78;5078601;58;1139058;-75
2022/08/27 10:13:53;;;;;;;12.25;6.03;;;;;;;30.56;42.53;100245.30;5073575;57;1141080;-71
2022/08/27 10:19:25;;;;;;;12.00;5.08;;;;;;;30.83;42.17;100244.78;5112395;57;1141028;-73
2022/08/27 10:24:57;;;;;;;16.15;6.17;;;;;;;30.98;40.40;100244.09;5086845;57;1141040;-74
2022/08/27 10:30:20;;;;;;;14.68;6.20;;;;;;;31.14;41.52;100239.61;5116435;57;1141142;-74
2022/08/27 10:35:42;;;;;;;19.02;5.50;;;;;;;31.28;39.09;100240.81;5122594;57;1141377;-75
2022/08/27 10:41:11;;;;;;;11.38;5.15;;;;;;;31.40;40.21;100239.53;5094919;57;1139159;-74
2022/08/27 10:46:33;;;;;;;13.58;5.42;;;;;;;31.57;37.38;100232.54;5110682;57;1139201;-72
2022/08/27 10:51:48;;;;;;;9.03;4.83;;;;;;;31.69;39.31;100234.55;5162604;57;1138989;-72
2022/08/27 10:57:28;;;;;;;15.63;5.28;;;;;;;31.75;38.64;100232.14;5194173;56;1136843;-73
2022/08/27 11:02:41;;;;;;;18.67;4.80;;;;;;;31.83;38.03;100228.05;5114010;57;1141044;-73
2022/08/27 11:08:04;;;;;;;17.60;6.33;;;;;;;31.92;37.48;100222.38;5164533;57;1141016;-74
2022/08/27 11:13:29;;;;;;;8.48;5.25;;;;;;;31.94;36.53;100222.91;5181173;56;1141138;-72
2022/08/27 11:18:48;;;;;;;12.93;5.03;;;;;;;32.10;36.76;100225.98;5228050;56;1139215;-72
2022/08/27 11:24:02;;;;;;;9.75;5.25;;;;;;;32.13;36.57;100224.09;5205878;56;1141244;-73
2022/08/27 11:29:22;;;;;;;7.75;4.85;;;;;;;32.30;36.65;100215.69;5164393;57;1138923;-72
2022/08/27 11:34:39;;;;;;;17.53;6.73;;;;;;;32.20;34.88;100215.67;5185722;56;1138997;-74
2022/08/27 11:40:25;;;;;;;7.60;4.77;;;;;;;32.20;36.27;100213.48;5191101;56;1141070;-73
2022/08/27 11:45:37;;;;;;;13.28;5.92;;;;;;;32.35;36.78;100210.23;5096591;57;1139161;-74
2022/08/27 11:50:55;;;;;;;11.20;4.75;;;;;;;32.55;35.97;100209.98;5106082;57;1141137;-73
2022/08/27 11:56:18;;;;;;;10.58;5.37;;;;;;;32.70;36.59;100199.87;5151756;57;1141323;-74
2022/08/27 12:01:30;;;;;;;6.90;4.53;;;;;;;32.85;35.00;100195.80;5087174;57;1139091;-74
2022/08/27 12:06:45;;;;;;;10.90;4.60;;;;;;;32.74;32.37;100198.27;5039104;58;1136973;-72
2022/08/27 12:12:16;;;;;;;8.78;4.28;;;;;;;32.74;34.43;100192.80;5054903;57;1139109;-73
2022/08/27 12:17:47;;;;;;;8.17;4.63;;;;;;;32.89;33.84;100191.16;5217551;56;1137176;-72
2022/08/27 12:28:39;;;;;;;19.92;4.62;;;;;;;32.93;31.72;100181.30;5229736;56;1138969;-70
2022/08/27 12:33:51;;;;;;;6.05;4.17;;;;;;;33.01;31.88;100165.11;5201649;56;1141032;-73
2022/08/27 12:39:01;;;;;;;7.08;4.45;;;;;;;32.96;30.07;100167.88;5191299;56;1139017;-73
2022/08/27 12:44:11;;;;;;;11.70;5.37;;;;;;;32.98;31.96;100170.34;5168734;56;1139039;-74
2022/08/27 12:49:21;;;;;;;11.88;3.87;;;;;;;32.97;30.55;100161.30;5164802;56;1141217;-73
2022/08/27 12:54:44;;;;;;;8.20;4.78;;;;;;;32.85;30.00;100163.47;5148776;56;1140990;-74
2022/08/27 13:00:12;;;;;;;8.48;4.20;;;;;;;32.89;29.67;100164.58;5173648;56;1138979;-74
2022/08/27 13:05:23;;;;;;;5.95;4.40;;;;;;;32.83;30.88;100166.52;5149405;57;1139337;-74
2022/08/27 13:10:32;;;;;;;7.20;4.47;;;;;;;32.86;30.54;100159.64;5106729;57;1138981;-73
2022/08/27 13:15:48;;;;;;;6.20;4.83;;;;;;;32.74;31.58;100146.23;5203719;56;1138988;-73
2022/08/27 13:21:13;;;;;;;12.60;4.58;;;;;;;32.85;31.56;100148.41;5235713;56;1138881;-76
2022/08/27 13:26:23;;;;;;;11.50;4.10;;;;;;;32.98;29.61;100139.66;5201189;56;1141022;-73
2022/08/27 13:31:30;;;;;;;11.38;5.10;;;;;;;33.02;30.62;100148.13;5206917;56;1138912;-75
2022/08/27 13:36:40;;;;;;;15.98;4.58;;;;;;;32.98;30.92;100139.66;5233180;56;1138951;-74
2022/08/27 13:41:48;;;;;;;6.20;4.40;;;;;;;33.02;31.12;100137.16;5160136;56;1139009;-73
2022/08/27 13:47:07;;;;;;;7.97;4.37;;;;;;;33.11;30.88;100134.15;5235630;56;1137159;-73
2022/08/27 13:54:11;;;;;;;6.75;3.98;;;;;;;33.24;29.54;100136.86;5235511;56;1137173;-73
2022/08/27 13:57:49;;;;;;;10.83;4.90;;;;;;;33.25;29.54;100135.80;5231112;56;1137136;-73
2022/08/27 14:02:57;;;;;;;8.48;4.90;;;;;;;33.36;29.83;100130.00;5188622;56;1139071;-73
2022/08/27 14:08:16;;;;;;;8.40;4.42;;;;;;;33.36;29.14;100125.06;5190196;56;1134779;-73
2022/08/27 14:13:26;;;;;;;5.12;4.22;;;;;;;33.21;29.37;100132.75;5203987;56;1138911;-73
2022/08/27 14:18:35;;;;;;;8.60;4.40;;;;;;;33.12;29.98;100127.02;5223897;56;1139287;-73
2022/08/27 14:23:41;;;;;;;15.88;4.20;;;;;;;33.21;29.92;100121.78;5160500;56;1139032;-73
2022/08/27 14:28:48;;;;;;;8.30;4.22;;;;;;;33.31;29.84;100120.41;5160337;56;1140976;-73
2022/08/27 14:33:54;;;;;;;9.15;4.12;;;;;;;33.50;29.34;100114.59;5160294;56;1138953;-73
2022/08/27 14:39:00;;;;;;;6.00;4.17;;;;;;;33.58;29.44;100114.58;5191114;56;1139019;-73
2022/08/27 14:44:08;;;;;;;7.00;4.78;;;;;;;33.59;29.48;100120.34;5195273;56;1138998;-73
2022/08/27 14:49:18;;;;;;;18.35;5.72;;;;;;;33.49;28.31;100118.44;5160252;56;1139008;-73
2022/08/27 14:54:24;;;;;;;13.20;4.40;;;;;;;33.37;28.54;100111.63;5155065;56;1141069;-74
2022/08/27 14:59:30;;;;;;;5.80;4.55;;;;;;;33.22;29.19;100117.95;5160257;56;1141106;-74
2022/08/27 15:04:36;;;;;;;7.85;4.80;;;;;;;33.14;29.17;100110.30;5084736;57;1138970;-74
2022/08/27 15:09:43;;;;;;;11.43;4.42;;;;;;;32.99;29.14;100113.08;5126806;57;1138987;-74
2022/08/27 15:14:48;;;;;;;19.57;7.58;;;;;;;32.92;29.29;100116.09;5144218;57;1141137;-73
2022/08/27 15:19:54;;;;;;;7.92;6.42;;;;;;;32.87;29.12;100116.08;5162392;57;1141021;-74
2022/08/27 15:25:01;;;;;;;12.75;5.22;;;;;;;32.74;29.13;100110.63;5136985;57;1138957;-73
2022/08/27 15:30:13;;;;;;;11.97;4.60;;;;;;;32.74;29.07;100120.20;5125742;57;1140941;-73
2022/08/27 15:35:25;;;;;;;10.55;4.85;;;;;;;32.71;29.39;100114.42;5137813;57;1140963;-76
2022/08/27 15:40:34;;;;;;;9.50;4.40;;;;;;;32.71;29.72;100117.98;5117696;57;1141042;-74
2022/08/27 15:45:40;;;;;;;11.20;4.65;;;;;;;32.64;28.95;100116.08;5122530;57;1138902;-75
2022/08/27 15:50:46;;;;;;;13.10;4.70;;;;;;;32.63;29.34;100115.81;5120172;57;1141096;-74
2022/08/27 15:55:53;;;;;;;10.38;5.08;;;;;;;32.63;29.98;100117.17;5125271;57;1141320;-74
2022/08/27 16:01:18;;;;;;;13.80;5.00;;;;;;;32.66;30.25;100114.44;5171592;56;1141185;-74
2022/08/27 16:06:26;;;;;;;8.45;4.85;;;;;;;32.73;29.87;100124.05;5148579;57;1141050;-74
2022/08/27 16:11:32;;;;;;;16.00;5.25;;;;;;;32.72;30.13;100120.17;5196206;56;1138992;-74
2022/08/27 16:16:39;;;;;;;14.55;4.80;;;;;;;32.65;28.28;100122.39;5228453;56;1141083;-74
2022/08/27 16:21:45;;;;;;;5.55;4.75;;;;;;;32.57;29.80;100111.41;5235158;56;1141045;-74
2022/08/27 16:26:51;;;;;;;8.25;5.12;;;;;;;32.50;30.26;100113.08;5234816;56;1138944;-74
2022/08/27 16:31:57;;;;;;;8.20;4.90;;;;;;;32.46;30.68;100106.49;5197124;56;1138993;-74
2022/08/27 16:37:03;;;;;;;9.33;4.87;;;;;;;32.35;30.86;100104.03;5187631;56;1136938;-74
2022/08/27 16:42:10;;;;;;;8.50;5.00;;;;;;;32.26;31.60;100096.89;5167135;56;1136935;-74
2022/08/27 16:47:16;;;;;;;9.98;4.47;;;;;;;32.16;31.88;100094.12;5235714;56;1136937;-74
2022/08/27 16:52:22;;;;;;;7.28;5.00;;;;;;;32.08;31.93;100092.72;5208063;56;1136916;-74
2022/08/27 16:57:28;;;;;;;17.73;7.62;;;;;;;31.92;32.33;100095.17;5217418;56;1136933;-75
2022/08/27 17:02:36;;;;;;;21.77;5.90;;;;;;;31.77;32.43;100102.80;5156368;56;1139004;-72
2022/08/27 17:07:42;;;;;;;7.83;5.22;;;;;;;31.60;32.86;100099.95;5162580;57;1139098;-65
2022/08/27 17:12:48;;;;;;;13.53;4.80;;;;;;;31.47;33.27;100099.34;5130638;57;1136925;-67
2022/08/27 17:17:56;;;;;;;9.20;5.60;;;;;;;31.35;33.43;100108.84;5135214;57;1139025;-69
2022/08/27 17:23:14;;;;;;;5.30;4.70;;;;;;;31.27;34.75;100121.66;5162596;57;1137122;-69
2022/08/27 17:28:20;;;;;;;33.70;7.00;;;;;;;31.25;35.35;100121.92;5159364;57;1137137;-71
2022/08/27 17:33:33;;;;;;;83.42;14.95;;;;;;;31.06;38.17;100127.50;5162514;57;1138967;-68
2022/08/27 17:38:40;;;;;;;86.22;13.48;;;;;;;30.86;39.53;100135.57;5162499;57;1141133;-69
2022/08/27 17:43:46;;;;;;;52.80;10.48;;;;;;;30.73;39.84;100139.00;5126838;57;1138968;-66
2022/08/27 17:48:52;;;;;;;64.92;12.47;;;;;;;30.54;39.86;100153.28;5117902;57;1138952;-66
2022/08/27 17:53:59;;;;;;;62.60;14.10;;;;;;;30.36;41.62;100156.66;5162671;57;1143153;-69
2022/08/27 17:59:05;;;;;;;81.82;13.80;;;;;;;30.24;42.75;100157.37;5160923;57;1143192;-73
2022/08/27 18:04:11;;;;;;;52.05;12.73;;;;;;;30.13;43.15;100165.14;5126561;56;1143158;-70
2022/08/27 18:09:17;;;;;;;62.53;13.57;;;;;;;29.88;43.44;100164.81;5078670;57;1143417;-71
2022/08/27 18:14:23;;;;;;;68.52;20.02;;;;;;;29.67;44.84;100165.09;5137156;57;1143467;-70
2022/08/27 18:19:29;;;;;;;26.70;9.73;;;;;;;29.47;45.70;100177.10;5158477;57;1143263;-69
2022/08/27 18:24:36;;;;;;;26.10;10.65;;;;;;;29.12;48.35;100185.00;5094275;57;1141113;-66
2022/08/27 18:29:42;;;;;;;19.67;10.78;;;;;;;28.46;47.77;100189.81;5161859;57;1143278;-68
2022/08/27 18:34:48;;;;;;;42.65;21.80;;;;;;;28.45;49.30;100201.23;5162012;57;1143386;-72
2022/08/27 18:39:54;;;;;;;25.75;15.65;;;;;;;28.54;49.92;100193.52;5162250;57;1143184;-67
2022/08/27 18:45:00;;;;;;;31.62;16.60;;;;;;;28.37;49.97;100191.28;5161974;57;1143385;-69
2022/08/27 18:50:12;;;;;;;26.48;14.18;;;;;;;28.36;51.16;100195.90;5161849;57;1143164;-69
2022/08/27 18:55:22;;;;;;;41.30;15.68;;;;;;;28.37;51.77;100196.73;5162016;57;1143178;-66
2022/08/27 19:00:28;;;;;;;31.15;15.68;;;;;;;28.37;52.11;100198.91;5146682;57;1143198;-66
2022/08/27 19:05:34;;;;;;;32.63;15.30;;;;;;;28.31;52.43;100196.63;5138088;57;1143261;-68
2022/08/27 19:10:42;;;;;;;72.40;15.35;;;;;;;28.31;53.04;100202.06;5106041;57;1143358;-67
2022/08/27 19:15:58;;;;;;;39.63;15.48;;;;;;;28.13;52.37;100202.74;5170418;56;1143182;-68
2022/08/27 19:21:06;;;;;;;43.17;16.42;;;;;;;27.95;52.33;100212.75;5190845;56;1143453;-71
2022/08/27 19:26:22;;;;;;;42.98;15.93;;;;;;;27.84;52.27;100206.78;5127351;56;1143491;-70
2022/08/27 19:31:30;;;;;;;35.40;15.78;;;;;;;27.79;52.70;100199.08;5148566;56;1143122;-69
2022/08/27 19:36:40;;;;;;;48.23;19.30;;;;;;;27.73;53.31;100204.92;5148471;57;1142987;-72
2022/08/27 19:41:45;;;;;;;32.08;15.88;;;;;;;27.67;53.52;100216.73;5148406;57;1143194;-70
2022/08/27 19:46:54;;;;;;;30.97;16.75;;;;;;;27.51;53.76;100208.73;5148682;56;1143117;-68
2022/08/27 19:52:00;;;;;;;13.05;8.25;;;;;;;27.14;55.38;100204.62;5148538;57;1143482;-71
2022/08/27 19:57:06;;;;;;;17.07;8.13;;;;;;;26.68;56.53;100214.83;5148744;56;1141276;-70
2022/08/27 20:02:13;;;;;;;21.25;10.23;;;;;;;26.42;57.13;100218.75;5160770;57;1141074;-68
2022/08/27 20:07:20;;;;;;;37.73;16.48;;;;;;;26.40;57.41;100219.51;5230262;56;1143206;-72
2022/08/27 20:12:26;;;;;;;45.20;16.23;;;;;;;26.52;57.41;100224.45;5134490;57;1143102;-69
2022/08/27 20:17:31;;;;;;;29.57;14.00;;;;;;;26.65;57.04;100222.89;5199594;56;1143171;-73
2022/08/27 20:22:38;;;;;;;27.67;15.32;;;;;;;26.66;57.04;100220.48;5224507;56;1143390;-71
2022/08/27 20:27:46;;;;;;;35.17;17.02;;;;;;;26.67;56.96;100221.31;5224606;56;1143514;-69
2022/08/27 20:32:52;;;;;;;18.87;10.93;;;;;;;26.30;56.34;100223.27;5224794;56;1141126;-67
2022/08/27 20:37:59;;;;;;;19.40;11.53;;;;;;;25.62;57.79;100228.86;5224587;56;1141088;-67
2022/08/27 20:43:07;;;;;;;22.70;11.65;;;;;;;25.11;59.52;100228.55;5224315;56;1141075;-67
2022/08/27 20:48:13;;;;;;;21.12;11.85;;;;;;;24.90;60.76;100227.84;5175730;56;1141124;-71
2022/08/27 20:53:19;;;;;;;23.52;11.18;;;;;;;24.91;61.53;100227.31;5158554;57;1141102;-69
2022/08/27 21:03:50;;;;;;;25.43;9.93;;;;;;;25.11;61.61;100226.67;5085654;57;1141491;-72
2022/08/27 21:08:56;;;;;;;18.65;11.12;;;;;;;25.12;61.15;100224.28;5066145;57;1139523;-70
2022/08/27 21:14:02;;;;;;;19.55;10.98;;;;;;;24.80;61.61;100232.09;5119159;57;1141129;-72
2022/08/27 21:19:09;;;;;;;22.45;11.85;;;;;;;24.56;62.22;100220.19;5071691;57;1141038;-70
2022/08/27 21:24:17;;;;;;;19.67;10.93;;;;;;;24.69;63.67;100228.22;5063525;58;1140961;-68
2022/08/27 21:29:22;;;;;;;24.35;13.30;;;;;;;24.76;63.43;100226.28;5063830;58;1141086;-66
2022/08/27 21:34:29;;;;;;;16.45;11.38;;;;;;;24.80;63.33;100232.09;5065473;58;1141328;-71
2022/08/27 21:39:35;;;;;;;22.77;12.05;;;;;;;24.86;63.51;100222.59;5064922;58;1139292;-68
2022/08/27 21:44:41;;;;;;;22.95;12.65;;;;;;;24.86;63.12;100218.53;5143804;57;21529;-70
2022/08/27 21:49:47;;;;;;;24.15;12.47;;;;;;;24.80;63.51;100215.33;5148135;57;1138974;-69
2022/08/27 21:54:55;;;;;;;21.67;11.73;;;;;;;24.83;63.43;100218.12;5148317;57;1143136;-67
2022/08/27 22:00:10;;;;;;;25.17;12.00;;;;;;;24.67;63.41;100217.30;5148874;57;1143148;-71
2022/08/27 22:05:10;;;;;;;21.97;12.98;;;;;;;24.64;63.91;100213.16;5149258;57;1143171;-66
2022/08/27 22:10:16;;;;;;;20.65;12.20;;;;;;;24.56;64.52;100212.08;5158554;57;1143520;-72
2022/08/27 22:15:22;;;;;;;28.98;13.25;;;;;;;24.55;64.77;100211.77;5157758;57;1143187;-69
2022/08/27 22:20:29;;;;;;;24.05;12.23;;;;;;;24.50;64.60;100199.41;5157812;57;1143168;-67
2022/08/27 22:25:36;;;;;;;31.12;14.80;;;;;;;24.48;64.85;100208.27;5157828;57;1143755;-70
2022/08/27 22:30:43;;;;;;;24.23;14.28;;;;;;;24.46;65.29;100203.59;5157164;57;1143194;-70
2022/08/27 22:35:49;;;;;;;19.00;11.25;;;;;;;24.38;65.18;100200.63;5157877;57;1143199;-72
2022/08/27 22:40:55;;;;;;;20.70;12.63;;;;;;;24.32;64.91;100208.25;5157331;57;1143187;-72
2022/08/27 22:46:00;;;;;;;17.48;13.05;;;;;;;23.79;65.94;100205.75;5157150;57;1143336;-69
2022/08/27 22:51:06;;;;;;;17.40;12.60;;;;;;;23.24;67.50;100201.66;5157188;57;1143259;-70
2022/08/27 22:56:12;;;;;;;27.80;12.98;;;;;;;23.18;68.91;100204.38;5156700;57;1143167;-68
2022/08/27 23:01:22;;;;;;;24.05;13.70;;;;;;;23.08;69.11;100200.73;5161106;56;1143144;-69
2022/08/27 23:06:30;;;;;;;24.90;12.63;;;;;;;23.05;69.64;100197.13;5143918;56;1143397;-69
2022/08/27 23:11:36;;;;;;;17.70;11.88;;;;;;;23.12;70.61;100195.23;5077148;57;1143236;-66
2022/08/27 23:16:42;;;;;;;23.98;12.70;;;;;;;23.34;71.36;100192.63;5098032;57;1143166;-70
2022/08/27 23:21:48;;;;;;;16.15;12.00;;;;;;;23.26;70.31;100190.66;5065488;57;1143165;-70
2022/08/27 23:32:17;;;;;;;20.80;13.60;;;;;;;23.03;70.43;100196.50;5075691;56;1143201;-67
2022/08/27 23:37:24;;;;;;;21.87;13.43;;;;;;;22.68;70.87;100199.86;5015949;57;1143125;-69